Time;durP1;ratioP1;P1;durP2;ratioP2;P2;SDS_P1;SDS_P2;PMS_P1;PMS_P2;Temp;Humidity;BMP_temperature;BMP_pressure;BME280_temperature;BME280_humidity;BME280_pressure;Samples;Min_cycle;Max_cycle;Signal;HPM_P1;HPM_P2
2023/08/17 00:00:13;;;;;;;0.45;0.45;;;15.40;99.90;;;;;;5109117;27;20034;-65
2023/08/17 00:02:40;;;;;;;0.55;0.25;;;15.40;99.90;;;;;;5104968;27;20039;-66
2023/08/17 00:05:08;;;;;;;0.20;0.20;;;15.40;99.90;;;;;;5113570;27;20047;-65
2023/08/17 00:07:35;;;;;;;0.75;0.40;;;15.50;99.90;;;;;;5122024;27;20130;-65
2023/08/17 00:10:01;;;;;;;0.65;0.65;;;15.50;99.90;;;;;;5112677;27;20047;-65
2023/08/17 00:12:26;;;;;;;0.10;0.10;;;15.50;99.90;;;;;;5105994;27;20464;-66
2023/08/17 00:14:53;;;;;;;0.10;0.10;;;15.50;99.90;;;;;;5143231;27;20042;-66
2023/08/17 00:17:19;;;;;;;0.38;0.28;;;15.50;99.90;;;;;;5111202;27;20397;-66
2023/08/17 00:19:44;;;;;;;0.10;0.10;;;15.50;99.90;;;;;;5103407;28;20541;-65
2023/08/17 00:22:10;;;;;;;0.43;0.43;;;15.50;99.90;;;;;;5126667;27;20135;-65
2023/08/17 00:24:36;;;;;;;0.00;0.00;;;15.50;99.90;;;;;;5112537;27;20060;-66
2023/08/17 00:27:02;;;;;;;0.20;0.10;;;15.50;99.90;;;;;;5104371;27;20478;-66
2023/08/17 00:29:28;;;;;;;0.25;0.25;;;15.50;99.90;;;;;;5103428;27;20078;-66
2023/08/17 00:31:54;;;;;;;0.20;0.20;;;15.50;99.90;;;;;;5113800;27;20071;-65
2023/08/17 00:34:19;;;;;;;0.30;0.30;;;15.50;99.90;;;;;;5109710;27;20393;-66
2023/08/17 00:36:45;;;;;;;0.10;0.10;;;15.40;99.90;;;;;;5109267;27;20043;-65
2023/08/17 00:39:10;;;;;;;0.00;0.00;;;15.40;99.90;;;;;;5123389;27;20031;-65
2023/08/17 00:41:36;;;;;;;0.28;0.28;;;15.30;99.90;;;;;;5115313;27;20669;-66
2023/08/17 00:44:02;;;;;;;0.00;0.00;;;15.40;99.90;;;;;;5112760;27;20374;-66
2023/08/17 00:46:28;;;;;;;0.68;0.38;;;15.40;99.90;;;;;;5118571;27;20054;-65
2023/08/17 00:48:55;;;;;;;0.32;0.28;;;15.40;99.90;;;;;;5128858;27;20043;-66
2023/08/17 00:51:26;;;;;;;1.33;1.23;;;15.30;99.90;;;;;;5126600;27;20043;-66
2023/08/17 00:53:54;;;;;;;0.30;0.30;;;15.30;99.90;;;;;;5107878;27;20046;-65
2023/08/17 00:56:20;;;;;;;0.30;0.30;;;15.30;99.90;;;;;;5122972;27;20389;-65
2023/08/17 00:58:45;;;;;;;0.20;0.20;;;15.30;99.90;;;;;;5125931;27;20172;-65
2023/08/17 01:01:12;;;;;;;0.20;0.20;;;15.30;99.90;;;;;;5095353;27;20101;-65
2023/08/17 01:03:40;;;;;;;0.10;0.10;;;15.30;99.90;;;;;;5096948;27;20043;-65
2023/08/17 01:06:06;;;;;;;0.20;0.20;;;15.30;99.90;;;;;;5133628;27;20046;-66
2023/08/17 01:08:32;;;;;;;0.10;0.10;;;15.30;99.90;;;;;;5131543;27;20396;-66
2023/08/17 01:11:29;;;;;;;0.10;0.10;;;15.20;99.90;;;;;;5119940;27;20106;-65
2023/08/17 01:14:06;;;;;;;0.10;0.10;;;15.30;99.90;;;;;;5111017;27;20051;-65
2023/08/17 01:16:38;;;;;;;0.03;0.03;;;15.20;99.90;;;;;;5114501;27;20095;-65
2023/08/17 01:19:09;;;;;;;0.00;0.00;;;15.20;99.90;;;;;;5111730;27;20027;-66
2023/08/17 01:21:45;;;;;;;0.10;0.10;;;15.20;99.90;;;;;;5115013;27;20047;-66
2023/08/17 01:24:11;;;;;;;0.20;0.20;;;15.20;99.90;;;;;;5112891;27;20443;-65
2023/08/17 01:26:37;;;;;;;0.10;0.10;;;15.10;99.90;;;;;;5107858;27;20074;-66
2023/08/17 01:29:02;;;;;;;0.10;0.10;;;15.10;99.90;;;;;;5114694;27;20086;-65
2023/08/17 01:32:10;;;;;;;0.10;0.10;;;15.00;99.90;;;;;;5112185;27;20042;-65
2023/08/17 01:34:43;;;;;;;8.48;0.40;;;15.00;99.90;;;;;;5087063;27;20061;-66
2023/08/17 01:37:11;;;;;;;0.10;0.10;;;15.00;99.90;;;;;;5103533;27;20035;-65
2023/08/17 01:39:42;;;;;;;0.10;0.10;;;15.00;99.90;;;;;;5125516;27;20040;-65
2023/08/17 01:42:10;;;;;;;0.07;0.07;;;14.90;99.90;;;;;;5101138;27;20043;-66
2023/08/17 01:44:36;;;;;;;0.25;0.25;;;14.90;99.90;;;;;;5110540;27;20301;-65
2023/08/17 01:47:02;;;;;;;0.47;0.32;;;14.90;99.90;;;;;;5110813;27;20046;-65
2023/08/17 01:49:27;;;;;;;0.10;0.10;;;14.90;99.90;;;;;;5112811;27;20468;-65
2023/08/17 01:51:53;;;;;;;0.10;0.10;;;14.90;99.90;;;;;;5108787;27;20443;-65
2023/08/17 01:54:19;;;;;;;6.93;0.55;;;15.00;99.90;;;;;;5107347;27;20031;-65
2023/08/17 01:56:45;;;;;;;0.38;0.28;;;15.00;99.90;;;;;;5104769;27;20036;-65
2023/08/17 01:59:10;;;;;;;1.55;0.73;;;15.00;99.90;;;;;;5111081;27;20050;-66
2023/08/17 02:01:36;;;;;;;1.55;0.30;;;15.00;99.90;;;;;;5120211;27;20035;-65
2023/08/17 02:04:02;;;;;;;0.10;0.10;;;15.00;99.90;;;;;;5128352;27;20508;-65
2023/08/17 02:06:29;;;;;;;0.10;0.10;;;14.90;99.90;;;;;;5130780;27;20533;-65
2023/08/17 02:08:54;;;;;;;0.98;0.28;;;15.00;99.90;;;;;;5113499;27;20039;-65
2023/08/17 02:11:20;;;;;;;7.38;0.77;;;15.00;99.90;;;;;;5112662;27;20063;-65
2023/08/17 02:13:45;;;;;;;0.10;0.10;;;14.90;99.90;;;;;;5112374;27;20508;-65
2023/08/17 02:16:11;;;;;;;0.10;0.10;;;15.00;99.90;;;;;;5111753;27;20118;-66
2023/08/17 02:18:37;;;;;;;0.13;0.10;;;15.00;99.90;;;;;;5114447;27;20044;-65
2023/08/17 02:21:03;;;;;;;0.13;0.13;;;15.00;99.90;;;;;;5127952;27;20103;-65
2023/08/17 02:23:28;;;;;;;0.10;0.10;;;15.00;99.90;;;;;;5129488;27;20066;-65
2023/08/17 02:25:54;;;;;;;0.05;0.05;;;15.00;99.90;;;;;;5118024;27;20050;-64
2023/08/17 02:28:20;;;;;;;0.30;0.30;;;15.00;99.90;;;;;;5115338;27;20039;-65
2023/08/17 02:30:47;;;;;;;9.80;0.50;;;15.00;99.90;;;;;;5112552;27;20407;-65
2023/08/17 02:33:13;;;;;;;0.20;0.20;;;15.00;99.90;;;;;;5111131;27;20051;-65
2023/08/17 02:35:38;;;;;;;0.22;0.17;;;15.00;99.90;;;;;;5114925;27;20094;-65
2023/08/17 02:38:04;;;;;;;0.08;0.08;;;15.00;99.90;;;;;;5127313;27;20122;-66
2023/08/17 02:40:30;;;;;;;0.20;0.20;;;15.00;99.90;;;;;;5113410;27;20035;-65
2023/08/17 02:42:55;;;;;;;0.98;0.40;;;15.00;99.90;;;;;;5113873;27;20092;-65
2023/08/17 02:45:21;;;;;;;0.90;0.40;;;15.00;99.90;;;;;;5109835;27;20045;-65
2023/08/17 02:47:46;;;;;;;1.02;0.80;;;15.00;99.90;;;;;;5113167;27;20039;-65
2023/08/17 02:50:12;;;;;;;0.10;0.10;;;15.00;99.90;;;;;;5109475;27;20481;-65
2023/08/17 02:52:37;;;;;;;0.10;0.10;;;15.00;99.90;;;;;;5121544;27;20130;-66
2023/08/17 02:55:03;;;;;;;0.15;0.15;;;15.00;99.90;;;;;;5115239;27;20082;-65
2023/08/17 02:57:29;;;;;;;1.00;0.20;;;14.90;99.90;;;;;;5109321;27;20042;-66
2023/08/17 02:59:55;;;;;;;2.63;1.23;;;14.90;99.90;;;;;;5115434;27;20039;-66
2023/08/17 03:02:20;;;;;;;0.20;0.20;;;14.90;99.90;;;;;;5106118;27;20047;-65
2023/08/17 03:04:46;;;;;;;0.10;0.10;;;14.80;99.90;;;;;;5099958;28;20420;-66
2023/08/17 03:07:12;;;;;;;0.13;0.13;;;14.80;99.90;;;;;;5093842;27;20108;-66
2023/08/17 03:09:37;;;;;;;0.63;0.20;;;14.80;99.90;;;;;;5109447;27;20039;-65
2023/08/17 03:12:03;;;;;;;0.05;0.05;;;14.70;99.90;;;;;;5129575;27;20074;-65
2023/08/17 03:14:29;;;;;;;0.90;0.30;;;14.70;99.90;;;;;;5120914;27;20035;-66
2023/08/17 03:16:54;;;;;;;0.17;0.10;;;14.70;99.90;;;;;;5105620;28;20226;-66
2023/08/17 03:19:20;;;;;;;0.13;0.13;;;14.70;99.90;;;;;;5115615;27;20034;-65
2023/08/17 03:21:46;;;;;;;0.10;0.10;;;14.70;99.90;;;;;;5112757;27;20039;-66
2023/08/17 03:24:11;;;;;;;1.98;0.35;;;14.70;99.90;;;;;;5107622;28;20046;-66
2023/08/17 03:26:37;;;;;;;0.43;0.28;;;14.70;99.90;;;;;;5115460;27;20478;-66
2023/08/17 03:29:03;;;;;;;0.28;0.22;;;14.80;99.90;;;;;;5092400;28;20032;-65
2023/08/17 03:31:29;;;;;;;0.20;0.20;;;14.70;99.90;;;;;;5107417;28;20058;-66
2023/08/17 03:33:55;;;;;;;0.70;0.43;;;14.70;99.90;;;;;;5107410;27;20114;-65
2023/08/17 03:36:21;;;;;;;0.10;0.10;;;14.70;99.90;;;;;;5106526;28;20077;-66
2023/08/17 03:38:46;;;;;;;0.20;0.20;;;14.70;99.90;;;;;;5113690;28;20446;-65
2023/08/17 03:41:12;;;;;;;0.22;0.22;;;14.70;99.90;;;;;;5095048;28;20486;-66
2023/08/17 03:43:38;;;;;;;0.30;0.30;;;14.70;99.90;;;;;;5096928;28;20042;-65
2023/08/17 03:46:04;;;;;;;0.10;0.10;;;14.70;99.90;;;;;;5108168;28;20043;-65
2023/08/17 03:48:30;;;;;;;0.45;0.20;;;14.70;99.90;;;;;;5099590;28;20042;-66
2023/08/17 03:50:56;;;;;;;0.30;0.30;;;14.70;99.90;;;;;;5110641;28;20035;-66
2023/08/17 03:53:21;;;;;;;0.30;0.30;;;14.70;99.90;;;;;;5110426;28;20739;-66
2023/08/17 03:55:50;;;;;;;0.10;0.10;;;14.70;99.90;;;;;;5094641;28;20092;-65
2023/08/17 03:58:18;;;;;;;0.30;0.30;;;14.80;99.90;;;;;;5102687;28;20378;-66
2023/08/17 04:00:50;;;;;;;1.65;0.60;;;14.70;99.90;;;;;;5108238;28;20155;-65
2023/08/17 04:03:16;;;;;;;0.65;0.65;;;14.70;99.90;;;;;;5105591;28;20039;-65
2023/08/17 04:05:42;;;;;;;4.25;0.28;;;14.80;99.90;;;;;;5105846;28;20127;-65
2023/08/17 04:08:08;;;;;;;0.03;0.03;;;14.80;99.90;;;;;;5106558;28;20035;-65
2023/08/17 04:10:34;;;;;;;2.00;0.20;;;14.80;99.90;;;;;;5110649;28;20500;-65
2023/08/17 04:12:59;;;;;;;0.35;0.10;;;14.80;99.90;;;;;;5107713;28;20043;-65
2023/08/17 04:15:25;;;;;;;0.20;0.20;;;14.80;99.90;;;;;;5098622;28;20109;-66
2023/08/17 04:17:51;;;;;;;0.45;0.25;;;14.80;99.90;;;;;;5122180;28;20516;-65
2023/08/17 04:20:18;;;;;;;0.25;0.25;;;14.80;99.90;;;;;;5109863;28;20043;-65
2023/08/17 04:22:43;;;;;;;0.45;0.25;;;14.80;99.90;;;;;;5109140;28;20043;-64
2023/08/17 04:25:09;;;;;;;0.10;0.10;;;14.80;99.90;;;;;;5102565;28;20038;-66
2023/08/17 04:27:35;;;;;;;0.13;0.13;;;14.80;99.90;;;;;;5102259;28;20049;-65
2023/08/17 04:30:01;;;;;;;0.00;0.00;;;14.90;99.90;;;;;;5109074;28;20078;-66
2023/08/17 04:32:27;;;;;;;0.75;0.73;;;14.90;99.90;;;;;;5107516;28;20050;-67
2023/08/17 04:34:52;;;;;;;0.30;0.30;;;14.90;99.90;;;;;;5101767;27;20042;-65
2023/08/17 04:37:18;;;;;;;0.20;0.20;;;14.90;99.90;;;;;;5101395;27;20031;-66
2023/08/17 04:39:44;;;;;;;0.15;0.15;;;14.90;99.90;;;;;;5141142;27;20050;-65
2023/08/17 04:42:10;;;;;;;0.43;0.43;;;14.90;99.90;;;;;;5115781;27;20043;-64
2023/08/17 04:44:35;;;;;;;0.17;0.17;;;15.00;99.90;;;;;;5121729;27;20104;-65
2023/08/17 04:47:01;;;;;;;0.20;0.20;;;15.00;99.90;;;;;;5112827;28;20163;-66
2023/08/17 04:49:27;;;;;;;0.10;0.10;;;15.00;99.90;;;;;;5100532;27;20039;-65
2023/08/17 04:51:53;;;;;;;0.22;0.22;;;15.00;99.90;;;;;;5098675;27;20087;-65
2023/08/17 04:54:18;;;;;;;0.25;0.25;;;15.10;99.90;;;;;;5115369;27;20069;-65
2023/08/17 04:56:44;;;;;;;0.08;0.08;;;15.10;99.90;;;;;;5114909;27;20474;-65
2023/08/17 04:59:09;;;;;;;0.20;0.20;;;15.10;99.90;;;;;;5113735;27;20034;-65
2023/08/17 05:01:35;;;;;;;0.70;0.10;;;15.20;99.90;;;;;;5115802;27;20073;-65
2023/08/17 05:04:01;;;;;;;0.08;0.08;;;15.20;99.90;;;;;;5110914;28;20062;-65
2023/08/17 05:06:30;;;;;;;0.20;0.20;;;15.30;99.90;;;;;;5095811;28;20200;-65
2023/08/17 05:08:57;;;;;;;1.63;0.60;;;15.30;99.90;;;;;;5095653;28;20493;-66
2023/08/17 05:11:23;;;;;;;0.55;0.17;;;15.30;99.90;;;;;;5102875;27;20436;-65
2023/08/17 05:13:49;;;;;;;0.15;0.15;;;15.30;99.90;;;;;;5113237;27;20042;-65
2023/08/17 05:16:14;;;;;;;0.57;0.40;;;15.40;99.90;;;;;;5098254;27;20031;-65
2023/08/17 05:18:40;;;;;;;0.20;0.20;;;15.40;99.90;;;;;;5111810;27;20036;-65
2023/08/17 05:21:06;;;;;;;0.05;0.05;;;15.40;99.90;;;;;;5094079;28;20048;-65
2023/08/17 05:23:31;;;;;;;0.15;0.15;;;15.40;99.90;;;;;;5129604;27;20052;-64
2023/08/17 05:25:57;;;;;;;0.15;0.15;;;15.50;99.90;;;;;;5094378;28;20039;-65
2023/08/17 05:28:23;;;;;;;0.30;0.30;;;15.50;99.90;;;;;;5107537;27;20039;-65
2023/08/17 05:30:49;;;;;;;0.25;0.25;;;15.50;99.90;;;;;;5133938;27;20486;-65
2023/08/17 05:33:14;;;;;;;0.25;0.25;;;15.60;99.90;;;;;;5096305;27;20317;-65
2023/08/17 05:35:42;;;;;;;0.40;0.40;;;15.70;99.90;;;;;;5122226;27;20047;-65
2023/08/17 05:38:09;;;;;;;25.40;0.95;;;15.80;99.90;;;;;;5128663;27;20047;-66
2023/08/17 05:40:35;;;;;;;0.70;0.70;;;15.80;99.90;;;;;;5111850;27;20043;-66
2023/08/17 05:43:01;;;;;;;0.70;0.30;;;15.90;99.90;;;;;;5111733;27;20036;-64
2023/08/17 05:45:27;;;;;;;3.60;0.90;;;16.00;99.90;;;;;;5097219;27;20050;-65
2023/08/17 05:47:52;;;;;;;0.43;0.43;;;16.10;99.90;;;;;;5113960;27;20513;-66
2023/08/17 05:50:18;;;;;;;1.75;0.38;;;16.20;99.90;;;;;;5101598;28;20084;-65
2023/08/17 05:52:44;;;;;;;0.47;0.30;;;16.20;99.90;;;;;;5112930;28;20039;-66
2023/08/17 05:55:10;;;;;;;0.00;0.00;;;16.30;99.90;;;;;;5092525;27;20386;-65
2023/08/17 05:57:35;;;;;;;0.10;0.10;;;16.40;99.90;;;;;;5092994;28;20039;-66
2023/08/17 06:00:01;;;;;;;0.77;0.35;;;16.40;99.90;;;;;;5100048;27;20402;-64
2023/08/17 06:02:27;;;;;;;0.22;0.15;;;16.40;99.90;;;;;;5094336;28;20044;-65
2023/08/17 06:04:52;;;;;;;0.15;0.15;;;16.40;99.90;;;;;;5096072;28;20051;-64
2023/08/17 06:07:18;;;;;;;0.10;0.10;;;16.40;99.90;;;;;;5113613;27;20043;-65
2023/08/17 06:09:43;;;;;;;0.30;0.30;;;16.40;99.90;;;;;;5105417;28;20398;-65
2023/08/17 06:12:09;;;;;;;0.30;0.30;;;16.40;99.90;;;;;;5111747;27;20575;-64
2023/08/17 06:14:35;;;;;;;0.10;0.10;;;16.40;99.90;;;;;;5130937;27;20130;-64
2023/08/17 06:17:00;;;;;;;0.10;0.10;;;16.30;99.90;;;;;;5092848;27;20051;-64
2023/08/17 06:19:26;;;;;;;0.30;0.30;;;16.30;99.90;;;;;;5112598;28;20043;-65
2023/08/17 06:21:52;;;;;;;0.28;0.10;;;16.20;99.90;;;;;;5093302;28;20042;-65
2023/08/17 06:24:18;;;;;;;0.10;0.10;;;16.20;99.90;;;;;;5128124;27;20398;-65
2023/08/17 06:26:44;;;;;;;0.00;0.00;;;16.20;99.90;;;;;;5110878;27;20043;-66
2023/08/17 06:29:09;;;;;;;0.60;0.35;;;16.30;99.90;;;;;;5106502;28;20044;-64
2023/08/17 06:31:35;;;;;;;1.13;0.35;;;16.30;99.90;;;;;;5115647;27;20114;-64
2023/08/17 06:34:01;;;;;;;0.10;0.10;;;16.30;99.90;;;;;;5104324;28;20485;-65
2023/08/17 06:36:31;;;;;;;0.10;0.10;;;16.40;99.90;;;;;;5093472;28;20047;-64
2023/08/17 06:38:57;;;;;;;0.10;0.10;;;16.40;99.90;;;;;;5093308;28;20044;-65
2023/08/17 06:41:24;;;;;;;1.67;1.20;;;16.50;99.90;;;;;;5092771;28;20086;-65
2023/08/17 06:43:50;;;;;;;0.10;0.10;;;16.50;99.90;;;;;;5109789;27;20047;-64
2023/08/17 06:46:16;;;;;;;0.10;0.10;;;16.60;99.90;;;;;;5110769;28;20359;-64
2023/08/17 06:48:42;;;;;;;0.20;0.20;;;16.70;99.90;;;;;;5118281;27;20035;-65
2023/08/17 06:51:08;;;;;;;4.30;0.10;;;16.70;99.90;;;;;;5110643;27;20034;-64
2023/08/17 06:53:34;;;;;;;0.30;0.10;;;16.70;99.90;;;;;;5078904;27;20043;-65
2023/08/17 06:56:00;;;;;;;0.15;0.15;;;16.80;99.90;;;;;;5107249;27;20075;-64
2023/08/17 06:58:25;;;;;;;0.10;0.10;;;16.80;99.90;;;;;;5107917;27;20472;-64
2023/08/17 07:00:51;;;;;;;0.10;0.10;;;16.90;99.90;;;;;;5131769;27;20494;-64
2023/08/17 07:03:16;;;;;;;0.65;0.35;;;16.90;99.90;;;;;;5146978;27;20043;-64
2023/08/17 07:05:42;;;;;;;0.00;0.00;;;17.00;99.90;;;;;;5094966;27;20079;-64
2023/08/17 07:08:08;;;;;;;0.20;0.20;;;16.90;99.90;;;;;;5099336;28;20498;-65
2023/08/17 07:10:33;;;;;;;1.05;0.20;;;17.00;99.90;;;;;;5107106;27;20047;-65
2023/08/17 07:13:03;;;;;;;0.08;0.08;;;17.00;99.90;;;;;;5109125;27;20059;-66
2023/08/17 07:15:31;;;;;;;0.00;0.00;;;17.00;99.90;;;;;;5124631;27;20155;-64
2023/08/17 07:17:57;;;;;;;0.10;0.10;;;17.00;99.90;;;;;;5110959;27;20041;-64
2023/08/17 07:20:22;;;;;;;0.20;0.20;;;17.00;99.90;;;;;;5110647;27;20043;-65
2023/08/17 07:22:48;;;;;;;0.90;0.52;;;17.10;99.90;;;;;;5091806;28;20035;-64
2023/08/17 07:25:14;;;;;;;0.10;0.10;;;17.10;99.90;;;;;;5105849;27;20043;-66
2023/08/17 07:27:40;;;;;;;0.20;0.20;;;17.10;99.90;;;;;;5102945;28;20406;-65
2023/08/17 07:30:06;;;;;;;0.10;0.10;;;17.10;99.90;;;;;;5098665;27;20095;-65
2023/08/17 07:32:33;;;;;;;0.20;0.20;;;17.10;99.90;;;;;;5110462;27;20047;-66
2023/08/17 07:34:58;;;;;;;0.43;0.30;;;17.10;99.90;;;;;;5093079;28;20172;-65
2023/08/17 07:37:25;;;;;;;0.20;0.20;;;17.10;99.90;;;;;;5091087;28;20122;-64
2023/08/17 07:39:51;;;;;;;0.35;0.30;;;17.10;99.90;;;;;;5096570;28;20422;-64
2023/08/17 07:42:16;;;;;;;0.08;0.08;;;17.10;99.90;;;;;;5099431;28;20168;-65
2023/08/17 07:44:42;;;;;;;0.50;0.45;;;17.10;99.90;;;;;;5109636;28;20055;-65
2023/08/17 07:47:07;;;;;;;0.10;0.10;;;17.10;99.90;;;;;;5115008;27;20044;-65
2023/08/17 07:49:33;;;;;;;0.10;0.10;;;17.10;99.90;;;;;;5134852;27;20196;-66
2023/08/17 07:51:59;;;;;;;1.35;0.30;;;17.10;99.90;;;;;;5112962;28;20039;-65
2023/08/17 07:54:24;;;;;;;0.52;0.43;;;17.20;99.90;;;;;;5101329;28;20125;-66
2023/08/17 07:56:50;;;;;;;0.22;0.22;;;17.20;99.90;;;;;;5082673;28;20081;-64
2023/08/17 07:59:16;;;;;;;2.10;1.02;;;17.20;99.90;;;;;;5112499;28;20040;-65
2023/08/17 08:01:42;;;;;;;9.63;0.52;;;17.20;99.90;;;;;;5106022;28;20128;-64
2023/08/17 08:04:07;;;;;;;0.40;0.40;;;17.30;99.90;;;;;;5107971;28;20036;-64
2023/08/17 08:06:33;;;;;;;0.10;0.10;;;17.30;99.90;;;;;;5096815;28;20422;-66
2023/08/17 08:08:58;;;;;;;5.18;1.27;;;17.30;99.90;;;;;;5114866;27;20055;-64
2023/08/17 08:11:27;;;;;;;0.30;0.30;;;17.40;99.90;;;;;;5095813;28;20039;-65
2023/08/17 08:13:53;;;;;;;0.40;0.40;;;17.40;99.90;;;;;;5141725;27;20043;-65
2023/08/17 08:16:18;;;;;;;0.20;0.20;;;17.40;99.90;;;;;;5113959;27;20042;-65
2023/08/17 08:18:44;;;;;;;0.17;0.17;;;17.50;99.90;;;;;;5093736;27;20036;-64
2023/08/17 08:21:09;;;;;;;0.10;0.10;;;17.50;99.90;;;;;;5114111;27;20107;-64
2023/08/17 08:23:35;;;;;;;0.10;0.10;;;17.50;99.90;;;;;;5113017;27;20043;-64
2023/08/17 08:26:00;;;;;;;0.10;0.10;;;17.60;99.90;;;;;;5125035;27;20486;-65
2023/08/17 08:28:26;;;;;;;0.32;0.30;;;17.60;99.90;;;;;;5096679;27;20389;-64
2023/08/17 08:30:52;;;;;;;0.55;0.52;;;17.80;99.90;;;;;;5098491;27;20042;-65
2023/08/17 08:33:18;;;;;;;0.20;0.20;;;17.90;99.90;;;;;;5099717;28;20079;-64
2023/08/17 08:35:43;;;;;;;0.13;0.13;;;18.00;99.90;;;;;;5109796;27;20085;-64
2023/08/17 08:38:10;;;;;;;0.20;0.20;;;18.10;99.90;;;;;;5115966;27;20742;-66
2023/08/17 08:40:37;;;;;;;0.15;0.15;;;18.20;99.90;;;;;;5109894;27;20042;-64
2023/08/17 08:43:03;;;;;;;0.20;0.15;;;18.40;99.90;;;;;;5115991;27;20043;-64
2023/08/17 08:45:30;;;;;;;0.55;0.30;;;18.50;99.90;;;;;;5101278;27;20043;-65
2023/08/17 08:47:57;;;;;;;0.90;0.10;;;18.60;99.90;;;;;;5106926;27;20054;-65
2023/08/17 08:50:25;;;;;;;0.10;0.10;;;18.60;99.90;;;;;;5098984;27;20083;-65
2023/08/17 08:53:15;;;;;;;0.10;0.10;;;18.70;99.90;;;;;;5113357;27;20126;-64
2023/08/17 08:55:58;;;;;;;0.10;0.10;;;18.80;99.90;;;;;;5104569;27;20130;-65
2023/08/17 08:58:26;;;;;;;0.10;0.10;;;19.00;99.90;;;;;;5097467;27;20036;-64
2023/08/17 09:00:52;;;;;;;1.65;0.32;;;19.10;99.90;;;;;;5129824;27;20044;-64
2023/08/17 09:03:22;;;;;;;2.28;1.45;;;19.20;99.90;;;;;;5117714;27;20043;-64
2023/08/17 09:05:50;;;;;;;0.10;0.10;;;19.40;99.90;;;;;;5102273;27;20055;-65
2023/08/17 09:08:22;;;;;;;0.40;0.40;;;19.60;99.90;;;;;;5113332;27;20375;-65
2023/08/17 09:10:48;;;;;;;0.20;0.20;;;19.80;99.90;;;;;;5079877;27;20032;-65
2023/08/17 09:13:13;;;;;;;0.10;0.10;;;19.90;99.90;;;;;;5110504;27;20031;-64
2023/08/17 09:15:39;;;;;;;0.10;0.10;;;19.90;99.90;;;;;;5105790;27;20088;-65
2023/08/17 09:18:07;;;;;;;0.10;0.10;;;19.90;99.90;;;;;;5124064;27;20069;-64
2023/08/17 09:20:46;;;;;;;0.28;0.28;;;19.90;99.90;;;;;;5110708;27;20039;-65
2023/08/17 09:23:13;;;;;;;0.60;0.17;;;19.80;99.90;;;;;;5115913;27;20170;-65
2023/08/17 09:25:42;;;;;;;0.10;0.10;;;19.70;99.90;;;;;;5119395;27;20542;-64
2023/08/17 09:28:14;;;;;;;0.10;0.10;;;19.60;99.90;;;;;;5095066;28;20079;-65
2023/08/17 09:31:02;;;;;;;0.30;0.25;;;19.50;99.90;;;;;;5106506;27;20048;-64
2023/08/17 09:33:30;;;;;;;0.43;0.43;;;19.40;99.90;;;;;;5104607;27;20110;-64
2023/08/17 09:35:58;;;;;;;0.15;0.15;;;19.30;99.90;;;;;;5122881;27;20035;-64
2023/08/17 09:38:24;;;;;;;0.20;0.20;;;19.30;99.90;;;;;;5095835;27;20039;-65
2023/08/17 09:40:58;;;;;;;0.30;0.30;;;19.30;99.90;;;;;;5114635;27;20470;-65
2023/08/17 09:43:27;;;;;;;0.30;0.30;;;19.30;99.90;;;;;;5132297;27;20229;-65
2023/08/17 09:45:54;;;;;;;0.10;0.10;;;19.30;99.90;;;;;;5093139;27;20046;-64
2023/08/17 09:48:20;;;;;;;0.20;0.20;;;19.30;99.90;;;;;;5107297;27;20050;-64
2023/08/17 09:50:47;;;;;;;0.30;0.30;;;19.20;99.90;;;;;;5104917;27;20447;-64
2023/08/17 09:53:17;;;;;;;0.10;0.10;;;19.20;99.90;;;;;;5109044;27;20068;-65
2023/08/17 09:55:44;;;;;;;0.10;0.10;;;19.20;99.90;;;;;;5093166;28;20090;-64
2023/08/17 09:58:14;;;;;;;0.10;0.10;;;19.20;99.90;;;;;;5095947;27;20046;-63
2023/08/17 10:00:47;;;;;;;0.08;0.08;;;19.20;99.90;;;;;;5120879;27;20390;-64
2023/08/17 10:03:14;;;;;;;0.20;0.20;;;19.20;99.90;;;;;;5093746;28;20138;-65
2023/08/17 10:05:42;;;;;;;0.22;0.22;;;19.20;99.90;;;;;;5111224;27;20042;-64
2023/08/17 10:08:11;;;;;;;0.32;0.25;;;19.20;99.90;;;;;;5111418;27;20089;-64
2023/08/17 10:10:42;;;;;;;0.10;0.10;;;19.30;99.90;;;;;;5094650;28;20043;-65
2023/08/17 10:13:09;;;;;;;0.10;0.10;;;19.30;99.90;;;;;;5108677;27;20039;-65
2023/08/17 10:15:41;;;;;;;0.25;0.25;;;19.30;99.90;;;;;;5127876;27;20057;-64
2023/08/17 10:18:20;;;;;;;0.10;0.10;;;19.30;99.90;;;;;;5118095;27;20034;-64
2023/08/17 10:20:59;;;;;;;0.35;0.20;;;19.40;99.90;;;;;;5117260;27;20117;-64
2023/08/17 10:23:27;;;;;;;0.10;0.10;;;19.50;99.90;;;;;;5094237;27;20047;-65
2023/08/17 10:25:53;;;;;;;0.20;0.20;;;19.60;99.90;;;;;;5104500;28;20044;-64
2023/08/17 10:28:21;;;;;;;0.55;0.20;;;19.70;99.90;;;;;;5099107;27;20583;-64
2023/08/17 10:30:48;;;;;;;0.13;0.13;;;19.80;99.90;;;;;;5130071;27;20065;-64
2023/08/17 10:33:15;;;;;;;0.20;0.20;;;19.80;99.90;;;;;;5095328;27;20139;-65
2023/08/17 10:35:41;;;;;;;0.57;0.50;;;19.80;99.90;;;;;;5093377;28;20126;-64
2023/08/17 10:38:08;;;;;;;0.10;0.10;;;19.80;99.90;;;;;;5098506;27;20035;-64
2023/08/17 10:40:41;;;;;;;0.10;0.10;;;19.80;99.90;;;;;;5121237;27;20071;-64
2023/08/17 10:43:06;;;;;;;0.10;0.10;;;19.70;99.90;;;;;;5110527;27;20043;-64
2023/08/17 10:45:34;;;;;;;1.25;0.38;;;19.70;99.90;;;;;;5109945;27;20386;-65
2023/08/17 10:48:27;;;;;;;0.30;0.30;;;19.60;99.90;;;;;;5100738;27;20394;-64
2023/08/17 10:51:05;;;;;;;0.43;0.43;;;19.60;99.90;;;;;;5117883;27;20570;-64
2023/08/17 10:53:38;;;;;;;0.15;0.15;;;19.60;99.90;;;;;;5109275;27;21923;-64
2023/08/17 10:56:08;;;;;;;0.10;0.10;;;19.60;99.90;;;;;;5092548;28;20032;-64
2023/08/17 10:58:34;;;;;;;0.08;0.08;;;19.60;99.90;;;;;;5096501;27;20544;-64
2023/08/17 11:00:59;;;;;;;0.10;0.10;;;19.80;99.90;;;;;;5113112;27;20039;-63
2023/08/17 11:03:26;;;;;;;0.03;0.03;;;19.80;99.90;;;;;;5095132;27;20035;-65
2023/08/17 11:05:55;;;;;;;0.43;0.43;;;19.80;99.90;;;;;;5112416;27;20053;-65
2023/08/17 11:08:42;;;;;;;0.15;0.10;;;19.90;99.90;;;;;;5149193;27;20402;-64
2023/08/17 11:11:15;;;;;;;0.10;0.10;;;20.00;99.90;;;;;;5111380;28;20115;-65
2023/08/17 11:13:43;;;;;;;0.68;0.32;;;20.20;99.90;;;;;;5091515;28;20104;-65
2023/08/17 11:16:10;;;;;;;0.28;0.15;;;20.40;99.90;;;;;;5097041;28;20031;-64
2023/08/17 11:18:36;;;;;;;0.10;0.10;;;20.60;99.90;;;;;;5105705;28;20027;-64
2023/08/17 11:21:06;;;;;;;0.98;0.57;;;20.70;99.90;;;;;;5110855;28;20038;-65
2023/08/17 11:23:34;;;;;;;2.10;0.28;;;20.80;99.90;;;;;;5102382;28;20046;-64
2023/08/17 11:26:00;;;;;;;3.20;0.70;;;20.90;99.90;;;;;;5091284;28;20096;-64
2023/08/17 11:28:26;;;;;;;0.10;0.10;;;20.90;99.90;;;;;;5114465;28;20431;-64
2023/08/17 11:31:00;;;;;;;0.25;0.25;;;20.80;99.90;;;;;;5116590;28;20076;-66
2023/08/17 11:33:26;;;;;;;0.10;0.10;;;20.70;99.90;;;;;;5104927;28;20131;-64
2023/08/17 11:35:55;;;;;;;0.35;0.35;;;20.60;99.90;;;;;;5129558;28;20039;-65
2023/08/17 11:38:20;;;;;;;0.20;0.10;;;20.60;99.90;;;;;;5110890;28;20031;-65
2023/08/17 11:40:46;;;;;;;0.30;0.30;;;20.70;99.90;;;;;;5118881;27;20087;-66
2023/08/17 11:43:11;;;;;;;0.38;0.38;;;20.80;99.90;;;;;;5100020;28;20050;-65
2023/08/17 11:45:37;;;;;;;1.38;0.45;;;20.80;99.90;;;;;;5092543;28;20051;-65
2023/08/17 11:48:03;;;;;;;0.20;0.20;;;20.80;99.90;;;;;;5124172;27;20043;-65
2023/08/17 11:50:29;;;;;;;1.00;0.40;;;20.80;99.90;;;;;;5117786;28;20058;-65
2023/08/17 11:52:54;;;;;;;0.73;0.52;;;20.80;99.90;;;;;;5117115;28;20393;-65
2023/08/17 11:55:20;;;;;;;0.13;0.13;;;20.70;99.90;;;;;;5091970;28;20032;-65
2023/08/17 11:57:46;;;;;;;0.20;0.20;;;20.70;99.90;;;;;;5106085;28;20035;-64
2023/08/17 12:00:21;;;;;;;0.52;0.30;;;20.70;99.90;;;;;;5124347;28;20043;-65
2023/08/17 12:02:51;;;;;;;0.10;0.10;;;20.60;99.90;;;;;;5102392;28;20478;-65
2023/08/17 12:05:23;;;;;;;0.65;0.65;;;20.60;99.90;;;;;;5106151;28;20131;-65
2023/08/17 12:07:49;;;;;;;;;;;20.60;99.90;;;;;;5098886;28;20031;-65
2023/08/17 12:10:15;;;;;;;0.28;0.20;;;20.50;99.90;;;;;;5118287;28;19963;-65
2023/08/17 12:12:40;;;;;;;0.20;0.20;;;20.50;99.90;;;;;;5073225;28;1081689;-65
2023/08/17 12:15:06;;;;;;;0.30;0.30;;;20.50;99.90;;;;;;5119208;28;20504;-64
2023/08/17 12:17:32;;;;;;;0.20;0.20;;;20.40;99.90;;;;;;5110300;28;20043;-65
2023/08/17 12:19:59;;;;;;;0.40;0.38;;;20.40;99.90;;;;;;5111628;28;20508;-64
2023/08/17 12:22:26;;;;;;;0.20;0.20;;;20.40;99.90;;;;;;5099926;28;20069;-64
2023/08/17 12:24:52;;;;;;;0.57;0.45;;;20.50;99.90;;;;;;5106180;28;20035;-65
2023/08/17 12:27:18;;;;;;;0.80;0.20;;;20.40;99.90;;;;;;5103461;28;20050;-65
2023/08/17 12:29:51;;;;;;;0.20;0.20;;;20.40;99.90;;;;;;5099575;28;20058;-65
2023/08/17 12:32:19;;;;;;;0.15;0.15;;;20.30;99.90;;;;;;5092764;28;20070;-64
2023/08/17 12:34:46;;;;;;;0.20;0.20;;;20.30;99.90;;;;;;5107074;28;20450;-65
2023/08/17 12:37:18;;;;;;;0.20;0.20;;;20.20;99.90;;;;;;5105602;28;20047;-65
2023/08/17 12:39:43;;;;;;;0.28;0.28;;;20.20;99.90;;;;;;5094229;28;20044;-65
2023/08/17 12:42:09;;;;;;;0.55;0.22;;;20.20;99.90;;;;;;5107685;28;20036;-65
2023/08/17 12:44:34;;;;;;;0.20;0.20;;;20.20;99.90;;;;;;5099207;28;20043;-65
2023/08/17 12:47:00;;;;;;;0.52;0.52;;;20.20;99.90;;;;;;5115425;28;20035;-66